KGRF

Gray AAF Airport

Fort Lewis/Tacoma, Washington, USA
METAR KGRF 170556Z AUTO 14004KT 10SM SCT029 BKN055 05/05 A3026 RMK AO2 RAE54 SLP253 P0004 60004 T00520052 10068 20052 58002 $
Observed Flight Rules
Dec-17 @ 05:56 UTC (25 minutes ago) Visual Flight Rules
Wind Visibility Clouds
140° at 4 knots 10 miles
  • Scattered at 2,900' AGL
  • Broken at 5,500' AGL
Temperatures Readings Precipitation
Current 5°C / 41°F
Dewpoint 5°C / 41°F
Humidity 100%
Altimeter 30.26" Hg
Pressure 1025.3 hPa
Elevation 92
Current Rain 0.04
METAR KGRF 170556Z AUTO 14004KT 10SM SCT029 BKN055 05/05 A3026 RMK AO2 RAE54 SLP253 P0004 60004 T00520052 10068 20052 58002 $
Observed Flight Rules
Dec-17 @ 05:56 UTC
(25 minutes ago)
VFR
Wind Visibility
140° at 4 knots 10 miles
Clouds
  • Scattered at 2,900' AGL
  • Broken at 5,500' AGL
Temperature Dewpoint
5°C / 41°F 5°C / 41°F
Humidity Altimeter Pressure
100% 30.26" Hg 1025.3 hPa
Current Rain
0.04